Time;durP1;ratioP1;P1;durP2;ratioP2;P2;SDS_P1;SDS_P2;PMS_P1;PMS_P2;Temp;Humidity;BMP_temperature;BMP_pressure;BME280_temperature;BME280_humidity;BME280_pressure;Samples;Min_cycle;Max_cycle;Signal;HPM_P1;HPM_P2
2023/01/06 00:00:42;;;;;;;6.73;3.30;;;;;;;;;;4959132;28;20035;-67
2023/01/06 00:03:08;;;;;;;5.40;3.30;;;;;;;;;;4943259;28;20776;-68
2023/01/06 00:05:33;;;;;;;10.83;4.10;;;;;;;;;;4959397;28;20031;-68
2023/01/06 00:07:59;;;;;;;11.53;5.13;;;;;;;;;;4975185;28;20117;-68
2023/01/06 00:10:25;;;;;;;5.23;3.60;;;;;;;;;;4942971;28;20385;-67
2023/01/06 00:12:50;;;;;;;5.53;3.37;;;;;;;;;;4959028;28;20097;-67
2023/01/06 00:15:16;;;;;;;3.73;2.63;;;;;;;;;;4975950;28;20113;-68
2023/01/06 00:17:42;;;;;;;4.30;2.87;;;;;;;;;;4975484;28;20042;-68
2023/01/06 00:20:08;;;;;;;5.63;3.10;;;;;;;;;;4959229;28;20277;-68
2023/01/06 00:22:34;;;;;;;7.30;4.07;;;;;;;;;;4959425;28;20066;-69
2023/01/06 00:24:59;;;;;;;10.20;3.60;;;;;;;;;;4959009;28;20035;-68
2023/01/06 00:27:25;;;;;;;4.30;2.90;;;;;;;;;;4958898;28;20146;-67
2023/01/06 00:29:51;;;;;;;7.83;3.10;;;;;;;;;;4958900;28;20394;-68
2023/01/06 00:32:18;;;;;;;6.80;3.63;;;;;;;;;;4942202;28;20297;-67
2023/01/06 00:34:44;;;;;;;4.77;2.80;;;;;;;;;;4942637;28;20456;-67
2023/01/06 00:37:09;;;;;;;5.03;2.60;;;;;;;;;;4974975;28;20297;-67
2023/01/06 00:39:35;;;;;;;3.23;2.70;;;;;;;;;;4975117;28;20039;-67
2023/01/06 00:42:04;;;;;;;3.47;2.53;;;;;;;;;;4974992;28;20045;-67
2023/01/06 00:44:30;;;;;;;3.57;2.47;;;;;;;;;;4974855;28;20030;-67
2023/01/06 00:46:55;;;;;;;5.80;2.60;;;;;;;;;;4942689;28;20282;-67
2023/01/06 00:49:21;;;;;;;3.07;2.80;;;;;;;;;;4958589;28;20855;-67
2023/01/06 00:51:47;;;;;;;4.93;2.97;;;;;;;;;;4974272;28;20066;-67
2023/01/06 00:54:13;;;;;;;4.10;2.83;;;;;;;;;;4974349;28;20038;-67
2023/01/06 00:56:41;;;;;;;3.70;2.47;;;;;;;;;;4958909;28;20377;-67
2023/01/06 00:59:10;;;;;;;5.23;3.17;;;;;;;;;;4943210;28;20296;-67
2023/01/06 01:01:38;;;;;;;6.87;3.40;;;;;;;;;;4943259;28;20385;-67
2023/01/06 01:04:04;;;;;;;4.87;2.87;;;;;;;;;;4959273;28;20284;-67
2023/01/06 01:06:30;;;;;;;10.03;3.17;;;;;;;;;;4959415;28;20281;-67
2023/01/06 01:08:56;;;;;;;7.80;2.63;;;;;;;;;;4943094;28;20067;-67
2023/01/06 01:14:06;;;;;;;3.63;2.60;;;;;;;;;;4958135;28;20286;-67
2023/01/06 01:16:32;;;;;;;6.33;2.70;;;;;;;;;;4957998;28;20782;-66
2023/01/06 01:18:58;;;;;;;2.70;2.50;;;;;;;;;;4941846;28;20047;-67
2023/01/06 01:21:23;;;;;;;5.03;2.97;;;;;;;;;;4941302;28;20042;-67
2023/01/06 01:23:50;;;;;;;2.60;2.40;;;;;;;;;;4972521;28;20436;-69
2023/01/06 01:26:16;;;;;;;7.00;3.23;;;;;;;;;;4971747;28;20278;-69
2023/01/06 01:28:41;;;;;;;4.83;2.73;;;;;;;;;;4956102;28;20038;-71
2023/01/06 01:31:07;;;;;;;7.50;2.20;;;;;;;;;;4940265;28;20035;-69
2023/01/06 01:33:33;;;;;;;4.30;2.57;;;;;;;;;;4955893;28;20405;-69
2023/01/06 01:36:04;;;;;;;4.10;2.43;;;;;;;;;;4955897;28;20045;-69
2023/01/06 01:38:30;;;;;;;2.83;2.47;;;;;;;;;;4940393;28;20035;-69
2023/01/06 01:40:55;;;;;;;4.17;2.70;;;;;;;;;;4957684;28;20129;-68
2023/01/06 01:43:21;;;;;;;2.20;2.00;;;;;;;;;;4956619;28;20470;-68
2023/01/06 01:45:49;;;;;;;3.03;2.73;;;;;;;;;;4957365;28;20473;-68
2023/01/06 01:48:30;;;;;;;6.20;3.00;;;;;;;;;;4941147;28;20293;-68
2023/01/06 01:50:57;;;;;;;1.95;1.85;;;;;;;;;;4957133;28;20388;-68
2023/01/06 01:53:25;;;;;;;3.78;2.47;;;;;;;;;;4973390;28;20082;-68
2023/01/06 01:55:52;;;;;;;7.23;2.90;;;;;;;;;;4941483;28;20038;-68
2023/01/06 01:58:22;;;;;;;2.97;2.55;;;;;;;;;;4974083;28;20374;-68
2023/01/06 02:00:48;;;;;;;;;;;;;;;;;;4957599;28;20109;-66
2023/01/06 02:03:14;;;;;;;2.70;2.30;;;;;;;;;;4957562;28;20360;-66
2023/01/06 02:05:40;;;;;;;2.95;2.05;;;;;;;;;;4974287;28;20528;-66
2023/01/06 02:08:09;;;;;;;3.60;2.22;;;;;;;;;;4941330;28;20039;-67
2023/01/06 02:10:34;;;;;;;1.80;1.70;;;;;;;;;;4957213;28;20034;-66
2023/01/06 02:13:00;;;;;;;2.90;2.13;;;;;;;;;;4941060;28;20061;-66
2023/01/06 02:15:46;;;;;;;3.45;2.22;;;;;;;;;;4946811;28;20484;-66
2023/01/06 02:18:31;;;;;;;4.93;2.88;;;;;;;;;;4973589;28;20042;-67
2023/01/06 02:21:05;;;;;;;2.83;1.88;;;;;;;;;;4957075;28;20042;-67
2023/01/06 02:23:40;;;;;;;2.22;1.88;;;;;;;;;;4973085;28;20074;-66
2023/01/06 02:26:21;;;;;;;2.50;2.30;;;;;;;;;;4956824;28;20128;-66
2023/01/06 02:28:53;;;;;;;2.50;2.30;;;;;;;;;;4974024;28;20101;-66
2023/01/06 02:31:38;;;;;;;4.47;2.45;;;;;;;;;;4956860;28;20528;-66
2023/01/06 02:34:16;;;;;;;2.80;2.60;;;;;;;;;;4956653;28;20492;-66
2023/01/06 02:36:44;;;;;;;4.15;2.97;;;;;;;;;;4940943;28;20062;-66
2023/01/06 02:39:12;;;;;;;;;;;;;;;;;;4941734;28;20537;-66
2023/01/06 02:41:52;;;;;;;2.10;2.00;;;;;;;;;;4956247;28;20008;-66
2023/01/06 02:44:18;;;;;;;;;;;;;;;;;;4940929;28;20083;-66
2023/01/06 02:46:43;;;;;;;2.20;2.10;;;;;;;;;;4956510;28;20049;-65
2023/01/06 02:49:15;;;;;;;3.50;2.30;;;;;;;;;;4972593;28;20049;-66
2023/01/06 02:51:49;;;;;;;1.95;1.85;;;;;;;;;;4972715;28;20054;-65
2023/01/06 02:54:27;;;;;;;2.53;2.28;;;;;;;;;;4956219;28;20042;-70
2023/01/06 02:57:02;;;;;;;3.42;2.47;;;;;;;;;;4940425;28;20042;-66
2023/01/06 02:59:32;;;;;;;2.15;1.92;;;;;;;;;;4956022;28;20119;-68
2023/01/06 03:01:58;;;;;;;1.92;1.83;;;;;;;;;;4972164;28;20365;-67
2023/01/06 03:04:26;;;;;;;2.63;2.42;;;;;;;;;;4972344;28;20054;-68
2023/01/06 03:06:54;;;;;;;3.97;2.63;;;;;;;;;;4956454;28;20125;-66
2023/01/06 03:09:21;;;;;;;2.88;2.63;;;;;;;;;;4955913;28;20049;-66
2023/01/06 03:11:49;;;;;;;3.58;2.40;;;;;;;;;;4941016;28;20118;-66
2023/01/06 03:14:22;;;;;;;6.75;3.45;;;;;;;;;;4942191;28;20081;-66
2023/01/06 03:16:48;;;;;;;4.30;2.90;;;;;;;;;;4973822;28;20125;-67
2023/01/06 03:19:14;;;;;;;3.07;2.63;;;;;;;;;;4941676;28;20125;-68
2023/01/06 03:21:41;;;;;;;3.05;2.45;;;;;;;;;;4973199;28;20098;-67
2023/01/06 03:24:07;;;;;;;4.93;3.53;;;;;;;;;;4972412;28;20051;-68
2023/01/06 03:26:34;;;;;;;2.85;2.65;;;;;;;;;;4957820;28;20197;-66
2023/01/06 03:29:00;;;;;;;8.38;2.92;;;;;;;;;;4972186;28;20129;-67
2023/01/06 03:31:42;;;;;;;4.45;2.45;;;;;;;;;;4955692;28;20109;-66
2023/01/06 03:34:27;;;;;;;10.15;4.40;;;;;;;;;;4955952;28;20133;-67
2023/01/06 03:37:11;;;;;;;7.18;4.13;;;;;;;;;;4939856;28;20137;-66
2023/01/06 03:39:52;;;;;;;4.82;2.50;;;;;;;;;;4955732;28;20047;-67
2023/01/06 03:45:09;;;;;;;3.85;2.55;;;;;;;;;;4956622;28;20097;-66
2023/01/06 03:47:46;;;;;;;3.97;2.65;;;;;;;;;;4972057;28;20039;-67
2023/01/06 03:50:18;;;;;;;2.95;2.65;;;;;;;;;;4955706;28;20385;-66
2023/01/06 03:52:52;;;;;;;9.00;3.28;;;;;;;;;;4955752;28;20051;-65
2023/01/06 03:55:19;;;;;;;2.15;2.03;;;;;;;;;;4972318;28;20496;-66
2023/01/06 03:57:47;;;;;;;2.75;2.20;;;;;;;;;;4972007;28;20050;-66
2023/01/06 04:00:14;;;;;;;2.67;2.30;;;;;;;;;;4939913;28;20039;-68
2023/01/06 04:02:44;;;;;;;6.55;2.22;;;;;;;;;;4957696;28;20495;-66
2023/01/06 04:05:22;;;;;;;7.93;2.95;;;;;;;;;;4972049;28;20034;-67
2023/01/06 04:07:49;;;;;;;2.50;2.30;;;;;;;;;;4974187;28;20306;-65
2023/01/06 04:10:17;;;;;;;2.58;2.22;;;;;;;;;;4959523;28;20043;-66
2023/01/06 04:12:44;;;;;;;3.05;2.78;;;;;;;;;;4975069;28;20055;-66
2023/01/06 04:15:18;;;;;;;2.97;2.35;;;;;;;;;;4943697;28;20038;-67
2023/01/06 04:17:46;;;;;;;3.97;2.50;;;;;;;;;;4975632;28;20137;-66
2023/01/06 04:20:15;;;;;;;2.03;1.88;;;;;;;;;;4959325;28;20038;-67
2023/01/06 04:22:41;;;;;;;3.65;2.17;;;;;;;;;;4959849;28;20037;-66
2023/01/06 04:25:08;;;;;;;2.70;2.50;;;;;;;;;;4976000;28;20432;-66
2023/01/06 04:27:34;;;;;;;3.30;2.40;;;;;;;;;;4958893;28;20481;-66
2023/01/06 04:30:00;;;;;;;4.15;2.28;;;;;;;;;;4959035;28;20093;-65
2023/01/06 04:32:26;;;;;;;3.73;2.27;;;;;;;;;;4974863;28;20058;-66
2023/01/06 04:34:52;;;;;;;2.03;1.93;;;;;;;;;;4958906;28;20089;-67
2023/01/06 04:37:18;;;;;;;2.17;2.07;;;;;;;;;;4974904;28;20171;-66
2023/01/06 04:39:44;;;;;;;5.87;2.93;;;;;;;;;;4958586;28;20043;-66
2023/01/06 04:42:09;;;;;;;3.83;2.60;;;;;;;;;;4974586;28;20035;-66
2023/01/06 04:44:35;;;;;;;2.33;2.13;;;;;;;;;;4974389;28;20133;-66
2023/01/06 04:47:00;;;;;;;4.67;3.17;;;;;;;;;;4958323;28;20045;-66
2023/01/06 04:49:26;;;;;;;4.20;2.97;;;;;;;;;;4974961;28;20041;-66
2023/01/06 04:51:51;;;;;;;3.13;2.80;;;;;;;;;;4974503;28;20511;-65
2023/01/06 04:54:17;;;;;;;2.07;1.97;;;;;;;;;;4942525;28;20034;-66
2023/01/06 04:56:42;;;;;;;3.50;3.20;;;;;;;;;;4974561;28;20052;-66
2023/01/06 04:59:08;;;;;;;1.90;1.43;;;;;;;;;;4975373;28;20041;-66
2023/01/06 05:01:33;;;;;;;3.63;2.70;;;;;;;;;;4958142;28;20045;-68
2023/01/06 05:03:59;;;;;;;2.57;2.37;;;;;;;;;;4958060;28;20035;-65
2023/01/06 05:06:24;;;;;;;2.77;2.40;;;;;;;;;;4974003;28;20038;-65
2023/01/06 05:08:50;;;;;;;2.50;2.30;;;;;;;;;;4974302;28;20532;-66
2023/01/06 05:11:17;;;;;;;3.37;3.13;;;;;;;;;;4974803;28;20315;-66
2023/01/06 05:13:42;;;;;;;3.92;2.70;;;;;;;;;;4957764;28;20035;-65
2023/01/06 05:16:09;;;;;;;3.80;3.37;;;;;;;;;;4957902;28;20477;-66
2023/01/06 05:18:35;;;;;;;2.63;2.42;;;;;;;;;;4973255;28;20498;-67
2023/01/06 05:21:01;;;;;;;3.73;2.67;;;;;;;;;;4973953;28;20039;-69
2023/01/06 05:23:27;;;;;;;2.60;2.40;;;;;;;;;;4974293;28;20129;-65
2023/01/06 05:25:52;;;;;;;3.27;1.87;;;;;;;;;;4958355;28;20046;-66
2023/01/06 05:28:18;;;;;;;2.27;2.07;;;;;;;;;;4973582;28;20034;-65
2023/01/06 05:30:43;;;;;;;2.97;2.37;;;;;;;;;;4957393;28;20815;-67
2023/01/06 05:33:09;;;;;;;3.73;2.33;;;;;;;;;;4973433;28;20043;-66
2023/01/06 05:35:35;;;;;;;4.07;2.90;;;;;;;;;;4973446;28;20034;-66
2023/01/06 05:38:00;;;;;;;3.43;1.97;;;;;;;;;;4973641;28;20038;-66
2023/01/06 05:40:26;;;;;;;4.43;2.80;;;;;;;;;;4957780;28;20043;-67
2023/01/06 05:42:53;;;;;;;3.53;2.63;;;;;;;;;;4957486;28;20045;-66
2023/01/06 05:45:18;;;;;;;1.77;1.67;;;;;;;;;;4957133;28;20046;-66
2023/01/06 05:47:44;;;;;;;6.47;2.43;;;;;;;;;;4973341;28;20026;-66
2023/01/06 05:50:10;;;;;;;3.60;3.30;;;;;;;;;;4957369;28;20496;-66
2023/01/06 05:52:35;;;;;;;5.30;2.53;;;;;;;;;;4974212;28;20351;-67
2023/01/06 05:55:01;;;;;;;5.00;3.20;;;;;;;;;;4973241;28;20038;-66
2023/01/06 05:57:26;;;;;;;2.27;2.10;;;;;;;;;;4957234;28;20049;-70
2023/01/06 05:59:52;;;;;;;2.97;2.63;;;;;;;;;;4973545;28;20039;-65
2023/01/06 06:02:17;;;;;;;5.30;2.80;;;;;;;;;;4956960;28;20089;-66
2023/01/06 06:04:45;;;;;;;2.50;2.30;;;;;;;;;;4940722;28;20031;-68
2023/01/06 06:07:10;;;;;;;3.60;3.08;;;;;;;;;;4972439;28;20038;-66
2023/01/06 06:09:36;;;;;;;2.97;2.43;;;;;;;;;;4972611;28;20042;-66
2023/01/06 06:12:01;;;;;;;2.13;2.03;;;;;;;;;;4972607;28;20485;-66
2023/01/06 06:14:27;;;;;;;3.67;2.63;;;;;;;;;;4956731;28;20038;-69
2023/01/06 06:16:52;;;;;;;2.37;2.27;;;;;;;;;;4940618;28;20031;-66
2023/01/06 06:19:18;;;;;;;4.03;2.93;;;;;;;;;;4956775;28;20031;-66
2023/01/06 06:21:43;;;;;;;4.63;2.47;;;;;;;;;;4957300;28;20349;-67
2023/01/06 06:24:09;;;;;;;3.93;3.43;;;;;;;;;;4957251;28;20038;-66
2023/01/06 06:26:34;;;;;;;3.13;2.27;;;;;;;;;;4972981;28;20536;-65
2023/01/06 06:29:00;;;;;;;2.20;2.00;;;;;;;;;;4956625;28;20036;-66
2023/01/06 06:31:27;;;;;;;4.23;2.80;;;;;;;;;;4957047;28;20065;-66
2023/01/06 06:33:55;;;;;;;3.03;2.75;;;;;;;;;;4973582;28;20041;-67
2023/01/06 06:36:20;;;;;;;2.17;2.00;;;;;;;;;;4956400;28;20039;-66
2023/01/06 06:38:47;;;;;;;2.00;1.90;;;;;;;;;;4972716;28;20595;-66
2023/01/06 06:41:13;;;;;;;3.63;2.75;;;;;;;;;;4956479;28;20038;-66
2023/01/06 06:43:39;;;;;;;3.90;3.07;;;;;;;;;;4956750;28;20042;-66
2023/01/06 06:46:04;;;;;;;10.30;2.53;;;;;;;;;;4973840;28;20038;-66
2023/01/06 06:48:30;;;;;;;2.23;2.03;;;;;;;;;;4973169;28;20378;-67
2023/01/06 06:51:00;;;;;;;4.97;3.20;;;;;;;;;;4957485;28;20469;-66
2023/01/06 06:53:26;;;;;;;4.75;3.47;;;;;;;;;;4974243;28;20174;-66
2023/01/06 06:55:51;;;;;;;3.67;2.30;;;;;;;;;;4972732;28;20524;-66
2023/01/06 06:58:17;;;;;;;4.30;2.80;;;;;;;;;;4956585;28;20497;-66
2023/01/06 07:00:42;;;;;;;6.40;3.20;;;;;;;;;;4956321;28;20138;-65
2023/01/06 07:03:08;;;;;;;5.03;2.80;;;;;;;;;;4969341;28;20118;-67
2023/01/06 07:05:34;;;;;;;6.73;2.67;;;;;;;;;;4955729;28;20541;-66
2023/01/06 07:07:59;;;;;;;4.37;2.27;;;;;;;;;;4940508;28;20049;-71
2023/01/06 07:10:25;;;;;;;5.07;2.37;;;;;;;;;;4972099;28;20034;-66
2023/01/06 07:12:51;;;;;;;6.33;2.90;;;;;;;;;;4956246;28;20137;-66
2023/01/06 07:15:16;;;;;;;3.73;2.80;;;;;;;;;;4972024;28;20039;-65
2023/01/06 07:17:42;;;;;;;2.80;2.60;;;;;;;;;;4955942;28;20039;-65
2023/01/06 07:20:08;;;;;;;5.57;3.63;;;;;;;;;;4956084;28;20035;-65
2023/01/06 07:22:37;;;;;;;4.00;3.20;;;;;;;;;;4972152;28;20042;-65
2023/01/06 07:25:04;;;;;;;5.60;3.10;;;;;;;;;;4972562;28;20062;-66
2023/01/06 07:27:30;;;;;;;5.63;3.10;;;;;;;;;;4955951;28;20293;-65
2023/01/06 07:29:55;;;;;;;5.57;2.90;;;;;;;;;;4971772;28;20038;-66
2023/01/06 07:32:21;;;;;;;2.37;2.20;;;;;;;;;;4955489;28;20046;-66
2023/01/06 07:34:46;;;;;;;4.00;2.57;;;;;;;;;;4971675;28;20035;-67
2023/01/06 07:37:12;;;;;;;3.70;3.03;;;;;;;;;;4955746;28;20039;-66
2023/01/06 07:39:37;;;;;;;6.73;3.40;;;;;;;;;;4940453;28;20038;-65
2023/01/06 07:42:03;;;;;;;5.63;3.30;;;;;;;;;;4975094;28;20100;-66
2023/01/06 07:44:28;;;;;;;7.17;3.30;;;;;;;;;;4959059;28;20706;-66
2023/01/06 07:46:57;;;;;;;9.13;3.67;;;;;;;;;;4976022;28;20486;-65
2023/01/06 07:49:22;;;;;;;7.50;3.43;;;;;;;;;;4959471;28;20039;-66
2023/01/06 07:51:48;;;;;;;6.37;4.13;;;;;;;;;;4975034;28;20364;-66
2023/01/06 07:54:13;;;;;;;4.47;3.10;;;;;;;;;;4973978;28;20101;-65
2023/01/06 07:56:39;;;;;;;8.53;3.90;;;;;;;;;;4943531;28;20035;-66
2023/01/06 07:59:04;;;;;;;7.70;4.20;;;;;;;;;;4975468;28;20038;-65
2023/01/06 08:01:30;;;;;;;8.73;4.40;;;;;;;;;;4959408;28;20038;-65
2023/01/06 08:03:55;;;;;;;9.70;4.60;;;;;;;;;;4959505;28;20426;-65
2023/01/06 08:06:21;;;;;;;8.33;4.00;;;;;;;;;;4958982;28;20470;-66
2023/01/06 08:08:47;;;;;;;10.40;5.00;;;;;;;;;;4975552;28;20411;-67
2023/01/06 08:11:12;;;;;;;9.13;5.20;;;;;;;;;;4975087;28;20042;-66
2023/01/06 08:13:38;;;;;;;15.10;5.17;;;;;;;;;;4943022;28;20366;-66
2023/01/06 08:16:04;;;;;;;8.10;4.17;;;;;;;;;;4958786;28;20097;-76
2023/01/06 08:18:30;;;;;;;7.17;3.83;;;;;;;;;;4958934;28;20454;-66
2023/01/06 08:21:03;;;;;;;9.37;3.93;;;;;;;;;;4943352;28;20038;-67
2023/01/06 08:23:29;;;;;;;9.33;4.17;;;;;;;;;;4958820;28;20050;-67
2023/01/06 08:26:02;;;;;;;9.93;4.50;;;;;;;;;;4958971;28;20042;-67
2023/01/06 08:28:28;;;;;;;8.87;4.93;;;;;;;;;;4959009;28;20038;-67
2023/01/06 08:30:53;;;;;;;12.07;4.67;;;;;;;;;;4958849;28;20042;-67
2023/01/06 08:33:19;;;;;;;11.13;5.67;;;;;;;;;;4958900;28;20055;-67
2023/01/06 08:35:46;;;;;;;10.90;5.43;;;;;;;;;;4975071;28;20035;-68
2023/01/06 08:38:12;;;;;;;13.03;5.67;;;;;;;;;;4975762;28;20034;-68
2023/01/06 08:40:37;;;;;;;17.83;6.30;;;;;;;;;;4958343;28;20039;-68
2023/01/06 08:43:03;;;;;;;13.13;5.72;;;;;;;;;;4958692;28;20035;-68
2023/01/06 08:45:29;;;;;;;10.00;5.15;;;;;;;;;;4975419;28;20038;-68
2023/01/06 08:47:54;;;;;;;11.82;4.93;;;;;;;;;;4958594;28;20413;-68
2023/01/06 08:50:20;;;;;;;10.52;4.88;;;;;;;;;;4974694;28;20051;-68
2023/01/06 08:52:45;;;;;;;10.55;5.30;;;;;;;;;;4941809;28;20082;-67
2023/01/06 08:55:11;;;;;;;9.68;5.18;;;;;;;;;;4958292;28;20038;-68
2023/01/06 08:57:38;;;;;;;10.98;6.05;;;;;;;;;;4974526;28;20031;-68
2023/01/06 09:00:04;;;;;;;13.48;5.85;;;;;;;;;;4958625;28;20038;-67
2023/01/06 09:02:30;;;;;;;11.90;5.30;;;;;;;;;;4974380;28;20089;-67
2023/01/06 09:04:56;;;;;;;10.60;5.53;;;;;;;;;;4974374;28;20264;-68
2023/01/06 09:07:22;;;;;;;10.18;5.45;;;;;;;;;;4974076;28;20187;-68
2023/01/06 09:09:47;;;;;;;10.90;5.15;;;;;;;;;;4958025;28;20049;-67
2023/01/06 09:12:13;;;;;;;13.65;5.28;;;;;;;;;;4957902;28;20038;-68
2023/01/06 09:14:38;;;;;;;9.32;5.40;;;;;;;;;;4973919;28;20484;-68
2023/01/06 09:17:04;;;;;;;11.60;5.18;;;;;;;;;;4974425;28;20045;-67
2023/01/06 09:19:29;;;;;;;11.45;5.70;;;;;;;;;;4957956;28;20035;-67
2023/01/06 09:21:55;;;;;;;8.68;5.20;;;;;;;;;;4941775;28;20034;-67
2023/01/06 09:24:20;;;;;;;9.45;5.60;;;;;;;;;;4973951;28;20042;-67
2023/01/06 09:26:46;;;;;;;12.13;5.18;;;;;;;;;;4957397;28;20054;-67
2023/01/06 09:29:12;;;;;;;11.45;5.47;;;;;;;;;;4973611;28;20113;-67
2023/01/06 09:31:37;;;;;;;10.75;4.80;;;;;;;;;;4941747;28;20066;-75
2023/01/06 09:34:03;;;;;;;12.35;5.68;;;;;;;;;;4974067;28;20038;-67
2023/01/06 09:36:28;;;;;;;9.18;5.38;;;;;;;;;;4957242;28;20041;-67
2023/01/06 09:38:54;;;;;;;11.27;5.72;;;;;;;;;;4973518;28;20043;-67
2023/01/06 09:41:26;;;;;;;10.30;5.43;;;;;;;;;;4957459;28;20042;-67
2023/01/06 09:43:53;;;;;;;12.40;5.45;;;;;;;;;;4973133;28;20051;-67
2023/01/06 09:46:26;;;;;;;10.35;5.05;;;;;;;;;;4973273;28;20100;-68
2023/01/06 09:48:54;;;;;;;9.38;5.45;;;;;;;;;;4973308;28;20100;-68
2023/01/06 09:51:21;;;;;;;11.23;5.60;;;;;;;;;;4973273;28;20038;-67
2023/01/06 09:53:51;;;;;;;9.85;5.65;;;;;;;;;;4974171;28;20062;-68
2023/01/06 09:56:18;;;;;;;10.52;5.43;;;;;;;;;;4956987;28;20098;-68
2023/01/06 09:58:58;;;;;;;11.93;5.50;;;;;;;;;;4957125;28;20035;-67
2023/01/06 10:01:27;;;;;;;9.23;6.03;;;;;;;;;;4956955;28;20133;-67
2023/01/06 10:03:54;;;;;;;13.82;6.40;;;;;;;;;;4972688;28;20038;-67
2023/01/06 10:06:19;;;;;;;15.57;6.53;;;;;;;;;;4973598;28;20045;-68
2023/01/06 10:08:48;;;;;;;10.57;5.65;;;;;;;;;;4973940;28;20118;-67
2023/01/06 10:11:16;;;;;;;14.52;5.97;;;;;;;;;;4956633;28;20035;-71
2023/01/06 10:13:56;;;;;;;10.68;5.85;;;;;;;;;;4973953;28;20043;-68
2023/01/06 10:16:31;;;;;;;14.00;5.50;;;;;;;;;;4956828;28;20081;-68
2023/01/06 10:19:18;;;;;;;9.30;5.63;;;;;;;;;;4972510;28;20034;-70
2023/01/06 10:21:52;;;;;;;11.68;5.40;;;;;;;;;;4956156;28;20057;-68
2023/01/06 10:24:24;;;;;;;8.98;5.45;;;;;;;;;;4972437;28;20376;-68
2023/01/06 10:26:53;;;;;;;13.90;6.07;;;;;;;;;;4972825;28;20050;-68
2023/01/06 10:29:19;;;;;;;12.18;5.75;;;;;;;;;;4972806;28;20453;-68
2023/01/06 10:31:46;;;;;;;14.55;6.97;;;;;;;;;;4956553;28;20097;-68
2023/01/06 10:34:22;;;;;;;11.55;7.28;;;;;;;;;;4956552;28;20085;-69
2023/01/06 10:37:11;;;;;;;12.07;6.43;;;;;;;;;;4972953;28;20043;-68
2023/01/06 10:39:38;;;;;;;10.93;5.45;;;;;;;;;;4967456;28;20089;-69
2023/01/06 10:45:11;;;;;;;13.07;5.65;;;;;;;;;;4972719;28;20137;-68
2023/01/06 10:47:38;;;;;;;11.65;6.00;;;;;;;;;;4956936;28;20045;-68
2023/01/06 10:50:04;;;;;;;14.75;6.22;;;;;;;;;;4956668;28;20027;-69
2023/01/06 10:52:30;;;;;;;11.88;6.18;;;;;;;;;;4972611;28;20157;-68
2023/01/06 10:54:59;;;;;;;10.07;5.43;;;;;;;;;;4956946;28;20042;-69
2023/01/06 10:57:31;;;;;;;13.55;6.32;;;;;;;;;;4973207;28;20049;-69
2023/01/06 11:00:09;;;;;;;12.43;6.70;;;;;;;;;;4974133;28;20117;-69
2023/01/06 11:02:34;;;;;;;11.13;6.10;;;;;;;;;;4973688;28;20130;-70
2023/01/06 11:05:00;;;;;;;14.55;6.50;;;;;;;;;;4956531;28;20133;-68
2023/01/06 11:07:27;;;;;;;17.05;7.05;;;;;;;;;;4973247;28;20035;-69
2023/01/06 11:09:54;;;;;;;16.02;6.85;;;;;;;;;;4973451;28;20045;-69
2023/01/06 11:12:21;;;;;;;12.93;6.57;;;;;;;;;;4973267;28;20489;-69
2023/01/06 11:14:56;;;;;;;14.60;6.45;;;;;;;;;;4972761;28;20584;-69
2023/01/06 11:17:22;;;;;;;13.15;6.38;;;;;;;;;;4978585;28;20038;-68
2023/01/06 11:20:03;;;;;;;13.00;6.97;;;;;;;;;;4962674;28;20347;-68
2023/01/06 11:22:29;;;;;;;13.20;5.97;;;;;;;;;;4962609;28;20062;-69
2023/01/06 11:24:55;;;;;;;15.75;6.43;;;;;;;;;;4962733;28;20081;-68
2023/01/06 11:27:20;;;;;;;12.48;6.43;;;;;;;;;;4962460;28;20370;-68
2023/01/06 11:29:47;;;;;;;12.52;6.43;;;;;;;;;;4978604;28;20035;-69
2023/01/06 11:32:17;;;;;;;16.33;6.30;;;;;;;;;;4978971;28;20055;-68
2023/01/06 11:34:49;;;;;;;12.02;6.22;;;;;;;;;;4962855;28;20100;-68
2023/01/06 11:37:15;;;;;;;14.75;6.47;;;;;;;;;;4978692;28;20050;-77
2023/01/06 11:39:41;;;;;;;15.40;6.25;;;;;;;;;;4962719;28;20042;-68
2023/01/06 11:42:12;;;;;;;18.05;6.72;;;;;;;;;;4962578;28;20071;-69
2023/01/06 11:44:39;;;;;;;13.15;6.20;;;;;;;;;;4962532;28;20438;-68
2023/01/06 11:47:16;;;;;;;11.80;6.13;;;;;;;;;;4978413;28;20038;-69
2023/01/06 11:49:45;;;;;;;14.30;6.60;;;;;;;;;;4962554;28;20543;-68
2023/01/06 11:52:22;;;;;;;15.50;7.00;;;;;;;;;;4978339;28;20544;-68
2023/01/06 11:55:12;;;;;;;16.10;6.80;;;;;;;;;;4978451;28;20484;-69
2023/01/06 11:57:41;;;;;;;16.05;6.95;;;;;;;;;;4941506;28;20058;-69
2023/01/06 12:00:18;;;;;;;12.27;6.33;;;;;;;;;;4978315;28;20039;-68
2023/01/06 12:02:47;;;;;;;14.60;6.40;;;;;;;;;;4962455;28;20039;-68
2023/01/06 12:05:35;;;;;;;16.70;6.90;;;;;;;;;;4946468;28;20376;-68
2023/01/06 12:08:03;;;;;;;12.90;6.43;;;;;;;;;;4961980;28;20133;-68
2023/01/06 12:10:31;;;;;;;14.73;6.10;;;;;;;;;;4978337;28;20039;-68
2023/01/06 12:12:57;;;;;;;17.47;6.37;;;;;;;;;;4961945;28;20429;-67
2023/01/06 12:15:24;;;;;;;14.80;6.27;;;;;;;;;;4978266;28;20069;-68
2023/01/06 12:17:59;;;;;;;15.33;6.90;;;;;;;;;;4962079;28;20540;-68
2023/01/06 12:20:32;;;;;;;16.23;7.00;;;;;;;;;;4978030;28;20043;-67
2023/01/06 12:23:04;;;;;;;16.83;6.27;;;;;;;;;;4977782;28;20050;-68
2023/01/06 12:25:50;;;;;;;13.63;6.23;;;;;;;;;;4945742;28;20043;-67
2023/01/06 12:28:20;;;;;;;11.20;5.60;;;;;;;;;;4958658;28;20053;-65
2023/01/06 12:30:55;;;;;;;14.30;6.28;;;;;;;;;;4975008;28;20141;-66
2023/01/06 12:33:30;;;;;;;12.97;6.27;;;;;;;;;;4958672;28;20505;-65
2023/01/06 12:35:58;;;;;;;13.63;5.80;;;;;;;;;;4958853;28;20129;-64
2023/01/06 12:38:39;;;;;;;13.33;6.47;;;;;;;;;;4958709;28;20031;-65
2023/01/06 12:41:31;;;;;;;13.73;6.63;;;;;;;;;;4958802;28;20105;-65
2023/01/06 12:44:18;;;;;;;12.90;5.67;;;;;;;;;;4956239;28;20038;-64
2023/01/06 12:46:52;;;;;;;14.90;6.30;;;;;;;;;;4958455;28;20349;-64
2023/01/06 12:49:20;;;;;;;9.53;4.83;;;;;;;;;;4983648;28;20300;-65
2023/01/06 12:51:50;;;;;;;10.40;5.87;;;;;;;;;;4956975;28;20294;-67
2023/01/06 12:54:16;;;;;;;14.30;5.67;;;;;;;;;;4968733;28;20747;-65
2023/01/06 12:57:00;;;;;;;11.53;5.47;;;;;;;;;;4981568;28;20344;-65
2023/01/06 12:59:31;;;;;;;16.90;5.80;;;;;;;;;;4964433;28;20480;-65
2023/01/06 13:01:59;;;;;;;29.23;7.20;;;;;;;;;;4981675;28;20270;-65
2023/01/06 13:04:37;;;;;;;8.07;4.53;;;;;;;;;;4965595;28;20279;-64
2023/01/06 13:07:06;;;;;;;9.37;5.37;;;;;;;;;;4962834;28;20729;-64
2023/01/06 13:09:40;;;;;;;10.23;5.27;;;;;;;;;;4948048;28;20700;-64
2023/01/06 13:12:06;;;;;;;15.83;5.00;;;;;;;;;;4941765;28;20392;-62
2023/01/06 13:14:50;;;;;;;13.87;5.27;;;;;;;;;;4975006;28;20393;-64
2023/01/06 13:17:23;;;;;;;11.70;4.57;;;;;;;;;;4989208;28;20095;-63
2023/01/06 13:19:50;;;;;;;11.27;4.07;;;;;;;;;;4990590;28;20290;-65
2023/01/06 13:22:22;;;;;;;7.67;4.10;;;;;;;;;;4976628;28;20325;-64
2023/01/06 13:25:02;;;;;;;6.10;4.33;;;;;;;;;;4974248;28;20292;-63
2023/01/06 13:27:41;;;;;;;13.87;4.87;;;;;;;;;;4954696;28;20296;-63
2023/01/06 13:30:07;;;;;;;6.13;4.23;;;;;;;;;;4957093;28;20398;-63
2023/01/06 13:32:35;;;;;;;11.67;4.80;;;;;;;;;;4973483;28;20342;-63
2023/01/06 13:35:19;;;;;;;29.30;8.60;;;;;;;;;;4973256;28;20113;-64
2023/01/06 13:38:03;;;;;;;15.27;6.70;;;;;;;;;;4956989;28;20294;-63
2023/01/06 13:40:31;;;;;;;32.57;13.07;;;;;;;;;;4972670;28;20274;-64
2023/01/06 13:43:04;;;;;;;35.00;11.83;;;;;;;;;;4956139;28;20335;-64
2023/01/06 13:45:35;;;;;;;12.43;5.40;;;;;;;;;;4972490;28;20365;-64
2023/01/06 13:48:07;;;;;;;6.17;3.73;;;;;;;;;;4973430;28;20293;-64
2023/01/06 13:50:37;;;;;;;7.87;4.90;;;;;;;;;;4956554;28;20376;-64
2023/01/06 13:53:04;;;;;;;17.10;4.63;;;;;;;;;;4956387;28;20317;-64
2023/01/06 13:55:30;;;;;;;6.80;3.53;;;;;;;;;;4972791;28;20289;-64
2023/01/06 13:57:57;;;;;;;9.80;4.13;;;;;;;;;;4954979;28;20788;-64
2023/01/06 14:00:25;;;;;;;5.27;3.50;;;;;;;;;;4970717;28;20285;-64
2023/01/06 14:02:51;;;;;;;6.90;4.50;;;;;;;;;;4971733;28;20336;-65
2023/01/06 14:05:22;;;;;;;6.53;4.20;;;;;;;;;;4971922;28;20266;-64
2023/01/06 14:07:58;;;;;;;7.97;4.13;;;;;;;;;;4972215;28;20038;-64
2023/01/06 14:10:24;;;;;;;7.87;4.30;;;;;;;;;;4956142;28;20292;-64
2023/01/06 14:12:50;;;;;;;9.33;4.17;;;;;;;;;;4972157;28;20393;-64
2023/01/06 14:15:27;;;;;;;7.47;4.03;;;;;;;;;;4957017;28;20477;-63
2023/01/06 14:17:53;;;;;;;11.03;4.40;;;;;;;;;;4956890;28;20732;-64
2023/01/06 14:20:33;;;;;;;11.03;5.50;;;;;;;;;;4956476;28;20285;-64
2023/01/06 14:23:00;;;;;;;9.30;4.28;;;;;;;;;;4972822;28;20050;-64
2023/01/06 14:25:27;;;;;;;4.30;3.37;;;;;;;;;;4972039;28;20034;-63
2023/01/06 14:27:52;;;;;;;6.90;3.93;;;;;;;;;;4955909;28;20282;-64
2023/01/06 14:30:22;;;;;;;10.17;5.30;;;;;;;;;;4956128;28;20681;-63
2023/01/06 14:32:48;;;;;;;6.70;4.00;;;;;;;;;;4956305;28;20055;-63
2023/01/06 14:35:15;;;;;;;6.93;4.40;;;;;;;;;;4955390;28;20042;-63
2023/01/06 14:37:42;;;;;;;7.87;4.20;;;;;;;;;;4955755;28;20038;-63
2023/01/06 14:40:28;;;;;;;7.97;4.17;;;;;;;;;;4972697;28;20747;-63
2023/01/06 14:42:55;;;;;;;6.47;3.37;;;;;;;;;;4955001;28;20282;-65
2023/01/06 14:45:26;;;;;;;7.30;3.43;;;;;;;;;;4972883;28;20286;-64
2023/01/06 14:47:51;;;;;;;;;;;;;;;;;;4940153;28;20661;-64
2023/01/06 14:50:17;;;;;;;6.60;4.07;;;;;;;;;;4970998;28;19968;-64
2023/01/06 14:53:05;;;;;;;5.63;3.70;;;;;;;;;;4972162;28;20397;-64
2023/01/06 14:55:33;;;;;;;20.53;5.80;;;;;;;;;;4955548;28;20074;-64
2023/01/06 14:57:59;;;;;;;8.10;4.13;;;;;;;;;;4955568;28;20294;-64